Time;durP1;ratioP1;P1;durP2;ratioP2;P2;SDS_P1;SDS_P2;PMS_P1;PMS_P2;Temp;Humidity;BMP_temperature;BMP_pressure;BME280_temperature;BME280_humidity;BME280_pressure;Samples;Min_cycle;Max_cycle;Signal;HPM_P1;HPM_P2
2024/04/22 00:01:19;;;;;;;1.20;1.10;;;;;;;;;;6690890;26;20382;-73
2024/04/22 00:04:19;;;;;;;1.03;0.90;;;;;;;;;;6696944;26;20014;-73
2024/04/22 00:07:19;;;;;;;1.30;1.17;;;;;;;;;;6710726;26;20003;-73
2024/04/22 00:10:19;;;;;;;1.37;1.10;;;;;;;;;;6725874;26;20002;-73
2024/04/22 00:13:20;;;;;;;1.53;0.97;;;;;;;;;;6733508;26;20003;-74
2024/04/22 00:16:20;;;;;;;2.13;1.10;;;;;;;;;;6723123;26;20002;-74
2024/04/22 00:19:20;;;;;;;1.80;1.20;;;;;;;;;;6723127;26;20468;-73
2024/04/22 00:22:21;;;;;;;1.03;0.90;;;;;;;;;;6691856;26;20022;-73
2024/04/22 00:25:21;;;;;;;1.00;0.87;;;;;;;;;;6709031;26;20004;-73
2024/04/22 00:28:21;;;;;;;1.53;1.40;;;;;;;;;;6683505;26;20000;-73
2024/04/22 00:31:21;;;;;;;1.20;1.10;;;;;;;;;;6687620;26;20043;-74
2024/04/22 00:34:22;;;;;;;1.03;0.93;;;;;;;;;;6687236;26;22712;-73
2024/04/22 00:37:22;;;;;;;1.43;1.20;;;;;;;;;;6712899;26;20012;-73
2024/04/22 00:40:22;;;;;;;1.67;1.40;;;;;;;;;;6683062;26;20005;-73
2024/04/22 00:43:22;;;;;;;1.43;1.17;;;;;;;;;;6682429;26;19996;-73
2024/04/22 00:46:23;;;;;;;1.83;1.30;;;;;;;;;;6682638;26;20024;-73
2024/04/22 00:49:23;;;;;;;1.43;1.07;;;;;;;;;;6695919;26;20036;-73
2024/04/22 00:52:23;;;;;;;2.53;1.30;;;;;;;;;;6724321;26;20466;-73
2024/04/22 00:55:25;;;;;;;2.07;1.27;;;;;;;;;;6726915;26;20432;-73
2024/04/22 00:58:26;;;;;;;1.58;1.13;;;;;;;;;;6726775;26;19995;-73
2024/04/22 01:01:27;;;;;;;2.00;1.17;;;;;;;;;;6714247;26;20076;-73
2024/04/22 01:04:29;;;;;;;1.60;1.35;;;;;;;;;;6711502;26;20010;-73
2024/04/22 01:07:29;;;;;;;1.30;1.20;;;;;;;;;;6701788;26;20022;-73
2024/04/22 01:10:31;;;;;;;2.57;1.23;;;;;;;;;;6726339;26;20493;-73
2024/04/22 01:13:31;;;;;;;1.38;1.05;;;;;;;;;;6726329;26;20011;-73
2024/04/22 01:16:31;;;;;;;1.67;1.30;;;;;;;;;;6724178;26;20019;-73
2024/04/22 01:19:32;;;;;;;1.20;1.00;;;;;;;;;;6726108;26;19999;-73
2024/04/22 01:22:32;;;;;;;2.43;1.07;;;;;;;;;;6722565;26;20035;-73
2024/04/22 01:25:35;;;;;;;1.30;1.20;;;;;;;;;;6726033;26;20011;-73
2024/04/22 01:28:35;;;;;;;1.50;1.00;;;;;;;;;;6699524;26;20019;-73
2024/04/22 01:31:35;;;;;;;1.20;1.00;;;;;;;;;;6682663;26;20445;-73
2024/04/22 01:34:35;;;;;;;1.03;0.93;;;;;;;;;;6678582;26;20527;-73
2024/04/22 01:37:36;;;;;;;1.60;1.27;;;;;;;;;;6731995;26;20471;-74
2024/04/22 01:40:36;;;;;;;1.20;1.10;;;;;;;;;;6681272;26;20040;-73
2024/04/22 01:43:36;;;;;;;1.20;1.10;;;;;;;;;;6701598;26;20015;-73
2024/04/22 01:46:36;;;;;;;2.07;1.20;;;;;;;;;;6691083;26;19996;-73
2024/04/22 01:49:37;;;;;;;1.43;1.10;;;;;;;;;;6699393;26;20011;-73
2024/04/22 01:52:37;;;;;;;2.70;1.13;;;;;;;;;;6692130;26;20360;-73
2024/04/22 01:55:37;;;;;;;1.40;1.00;;;;;;;;;;6679445;26;20437;-73
2024/04/22 01:58:37;;;;;;;2.40;1.17;;;;;;;;;;6682284;26;20347;-73
2024/04/22 02:01:39;;;;;;;1.00;0.90;;;;;;;;;;6678934;26;20106;-73
2024/04/22 02:04:39;;;;;;;1.53;1.33;;;;;;;;;;6686653;26;20004;-73
2024/04/22 02:07:39;;;;;;;1.50;1.33;;;;;;;;;;6684542;26;19996;-73
2024/04/22 02:10:40;;;;;;;1.50;1.13;;;;;;;;;;6700731;26;20011;-73
2024/04/22 02:13:40;;;;;;;1.30;1.17;;;;;;;;;;6688286;26;20036;-73
2024/04/22 02:16:40;;;;;;;1.63;1.10;;;;;;;;;;6678745;26;20004;-73
2024/04/22 02:19:41;;;;;;;1.23;1.10;;;;;;;;;;6683951;26;20011;-73
2024/04/22 02:22:41;;;;;;;1.23;1.00;;;;;;;;;;6682586;26;20000;-73
2024/04/22 02:25:41;;;;;;;1.33;1.13;;;;;;;;;;6699529;26;20003;-73
2024/04/22 02:28:41;;;;;;;2.23;1.30;;;;;;;;;;6686136;26;20405;-73
2024/04/22 02:31:42;;;;;;;2.23;1.20;;;;;;;;;;6684373;26;20003;-73
2024/04/22 02:34:42;;;;;;;1.27;1.17;;;;;;;;;;6696236;26;20004;-73
2024/04/22 02:37:42;;;;;;;1.57;1.17;;;;;;;;;;6724449;26;20340;-73
2024/04/22 02:40:43;;;;;;;1.53;1.13;;;;;;;;;;6720982;26;20356;-73
2024/04/22 02:43:43;;;;;;;1.70;1.37;;;;;;;;;;6725002;26;20440;-73
2024/04/22 02:46:43;;;;;;;1.53;1.30;;;;;;;;;;6722605;26;19995;-73
2024/04/22 02:49:43;;;;;;;1.20;1.10;;;;;;;;;;6722021;26;20041;-73
2024/04/22 02:52:44;;;;;;;1.93;1.27;;;;;;;;;;6719786;26;20090;-73
2024/04/22 02:55:47;;;;;;;1.70;1.20;;;;;;;;;;6724687;26;19995;-73
2024/04/22 02:58:47;;;;;;;1.35;1.17;;;;;;;;;;6695041;26;19995;-73
2024/04/22 03:01:50;;;;;;;1.50;1.20;;;;;;;;;;6713470;26;20004;-73
2024/04/22 03:04:51;;;;;;;1.40;1.17;;;;;;;;;;6690856;26;20012;-73
2024/04/22 03:07:51;;;;;;;1.67;1.20;;;;;;;;;;6684359;26;20502;-73
2024/04/22 03:10:56;;;;;;;1.17;1.07;;;;;;;;;;6680359;26;20010;-73
2024/04/22 03:13:56;;;;;;;1.42;1.15;;;;;;;;;;6692254;26;20034;-73
2024/04/22 03:16:56;;;;;;;1.97;1.40;;;;;;;;;;6678181;26;20434;-73
2024/04/22 03:19:57;;;;;;;1.30;1.20;;;;;;;;;;6690244;26;20024;-73
2024/04/22 03:22:57;;;;;;;1.30;1.10;;;;;;;;;;6687161;26;20465;-73
2024/04/22 03:25:57;;;;;;;2.40;1.10;;;;;;;;;;6678645;26;19992;-73
2024/04/22 03:28:58;;;;;;;1.53;1.43;;;;;;;;;;6684047;26;19991;-74
2024/04/22 03:31:58;;;;;;;1.47;1.23;;;;;;;;;;6677812;26;20019;-73
2024/04/22 03:34:58;;;;;;;1.77;1.07;;;;;;;;;;6684903;26;20036;-73
2024/04/22 03:37:58;;;;;;;1.33;1.23;;;;;;;;;;6682616;26;20016;-73
2024/04/22 03:40:59;;;;;;;1.87;1.43;;;;;;;;;;6694026;26;20000;-73
2024/04/22 03:43:59;;;;;;;1.07;0.97;;;;;;;;;;6681291;26;20031;-73
2024/04/22 03:50:18;;;;;;;1.90;1.33;;;;;;;;;;6696092;26;20004;-74
2024/04/22 03:53:19;;;;;;;1.70;1.33;;;;;;;;;;6678083;26;20019;-73
2024/04/22 03:56:19;;;;;;;1.45;1.23;;;;;;;;;;6686903;26;20318;-73
2024/04/22 03:59:19;;;;;;;1.23;1.13;;;;;;;;;;6702806;26;20083;-73
2024/04/22 04:02:19;;;;;;;2.03;1.30;;;;;;;;;;6687656;26;20006;-75
2024/04/22 04:05:20;;;;;;;1.70;1.20;;;;;;;;;;6679947;26;20004;-76
2024/04/22 04:08:20;;;;;;;2.33;1.13;;;;;;;;;;6684273;26;20007;-75
2024/04/22 04:11:26;;;;;;;2.60;1.40;;;;;;;;;;6695047;26;20040;-75
2024/04/22 04:14:26;;;;;;;1.63;1.25;;;;;;;;;;6693495;26;20081;-75
2024/04/22 04:17:26;;;;;;;1.70;1.27;;;;;;;;;;6707011;26;20012;-75
2024/04/22 04:20:27;;;;;;;1.50;1.40;;;;;;;;;;6719631;26;20444;-77
2024/04/22 04:23:27;;;;;;;1.53;1.20;;;;;;;;;;6708445;26;20429;-78
2024/04/22 04:26:27;;;;;;;2.13;1.43;;;;;;;;;;6683549;26;20057;-75
2024/04/22 04:29:27;;;;;;;2.50;1.47;;;;;;;;;;6694123;26;20093;-75
2024/04/22 04:32:29;;;;;;;1.70;1.40;;;;;;;;;;6726798;26;19992;-75
2024/04/22 04:35:30;;;;;;;1.45;1.35;;;;;;;;;;6683008;26;20376;-75
2024/04/22 04:38:30;;;;;;;1.53;1.37;;;;;;;;;;6682794;26;20003;-75
2024/04/22 04:41:31;;;;;;;2.05;1.27;;;;;;;;;;6663055;26;20008;-75
2024/04/22 04:44:31;;;;;;;1.70;1.60;;;;;;;;;;6651526;26;20004;-76
2024/04/22 04:47:31;;;;;;;1.90;1.30;;;;;;;;;;6709934;26;20007;-76
2024/04/22 04:50:31;;;;;;;1.70;1.37;;;;;;;;;;6725225;26;20510;-78
2024/04/22 04:53:32;;;;;;;2.00;1.50;;;;;;;;;;6718042;26;20445;-78
2024/04/22 04:56:32;;;;;;;2.00;1.53;;;;;;;;;;6652355;26;20429;-78
2024/04/22 04:59:32;;;;;;;2.70;1.37;;;;;;;;;;6688124;26;19999;-78
2024/04/22 05:02:32;;;;;;;1.77;1.30;;;;;;;;;;6687631;26;20012;-78
2024/04/22 05:05:33;;;;;;;1.53;1.40;;;;;;;;;;6681845;26;20036;-78
2024/04/22 05:08:33;;;;;;;1.60;1.30;;;;;;;;;;6696323;26;20004;-78
2024/04/22 05:11:34;;;;;;;1.83;1.40;;;;;;;;;;6688806;26;20036;-75
2024/04/22 05:14:34;;;;;;;3.60;1.43;;;;;;;;;;6678938;26;19997;-76
2024/04/22 05:17:34;;;;;;;1.83;1.63;;;;;;;;;;6680045;26;19992;-75
2024/04/22 05:20:34;;;;;;;1.83;1.53;;;;;;;;;;6697212;26;20028;-76
2024/04/22 05:23:35;;;;;;;2.87;2.00;;;;;;;;;;6694806;26;20003;-76
2024/04/22 05:26:35;;;;;;;2.83;1.87;;;;;;;;;;6676327;26;20000;-75
2024/04/22 05:29:35;;;;;;;2.63;1.47;;;;;;;;;;6682096;26;20552;-76
2024/04/22 05:32:36;;;;;;;1.50;1.33;;;;;;;;;;6679817;26;20023;-76
2024/04/22 05:38:57;;;;;;;2.20;1.48;;;;;;;;;;6697622;26;20004;-75
2024/04/22 05:41:57;;;;;;;2.20;1.60;;;;;;;;;;6699485;26;20340;-75
2024/04/22 05:44:57;;;;;;;2.87;1.60;;;;;;;;;;6676598;26;20011;-75
2024/04/22 05:47:58;;;;;;;1.97;1.53;;;;;;;;;;6688963;26;20004;-75
2024/04/22 05:50:58;;;;;;;2.40;1.90;;;;;;;;;;6687193;26;20480;-73
2024/04/22 05:53:58;;;;;;;2.10;1.60;;;;;;;;;;6690244;26;20035;-72
2024/04/22 05:56:59;;;;;;;1.83;1.37;;;;;;;;;;6710271;26;20003;-76
2024/04/22 05:59:59;;;;;;;1.97;1.60;;;;;;;;;;6695496;26;20344;-76
2024/04/22 06:02:59;;;;;;;2.13;1.60;;;;;;;;;;6673560;26;20071;-73
2024/04/22 06:05:59;;;;;;;1.67;1.43;;;;;;;;;;6698018;26;20098;-73
2024/04/22 06:09:00;;;;;;;2.17;1.67;;;;;;;;;;6707419;26;20472;-73
2024/04/22 06:12:00;;;;;;;2.10;1.53;;;;;;;;;;6684857;26;20456;-73
2024/04/22 06:15:00;;;;;;;1.40;1.30;;;;;;;;;;6704901;26;19992;-75
2024/04/22 06:18:00;;;;;;;2.10;1.50;;;;;;;;;;6701891;26;19992;-74
2024/04/22 06:21:01;;;;;;;3.40;1.60;;;;;;;;;;6722431;26;20003;-74
2024/04/22 06:24:01;;;;;;;1.50;1.40;;;;;;;;;;6721804;26;20032;-73
2024/04/22 06:27:01;;;;;;;1.73;1.43;;;;;;;;;;6685658;26;20134;-73
2024/04/22 06:30:02;;;;;;;2.07;1.40;;;;;;;;;;6681738;26;20004;-73
2024/04/22 06:33:03;;;;;;;2.28;1.70;;;;;;;;;;6698588;26;20000;-74
2024/04/22 06:36:03;;;;;;;2.57;2.07;;;;;;;;;;6682563;26;20339;-74
2024/04/22 06:39:04;;;;;;;2.90;2.27;;;;;;;;;;6694578;26;20456;-74
2024/04/22 06:42:04;;;;;;;2.80;2.10;;;;;;;;;;6686990;26;20010;-75
2024/04/22 06:45:04;;;;;;;2.87;1.97;;;;;;;;;;6683962;26;20018;-74
2024/04/22 06:48:05;;;;;;;2.60;1.87;;;;;;;;;;6714540;26;20123;-75
2024/04/22 06:51:06;;;;;;;2.43;1.70;;;;;;;;;;6679972;26;20010;-74
2024/04/22 06:54:06;;;;;;;2.00;1.63;;;;;;;;;;6689914;26;20275;-74
2024/04/22 06:57:06;;;;;;;1.97;1.77;;;;;;;;;;6682902;26;19999;-74
2024/04/22 07:00:07;;;;;;;2.43;1.77;;;;;;;;;;6678413;26;20464;-75
2024/04/22 07:03:07;;;;;;;2.70;1.77;;;;;;;;;;6688339;26;20015;-74
2024/04/22 07:06:09;;;;;;;3.03;1.70;;;;;;;;;;6683631;26;20490;-74
2024/04/22 07:09:10;;;;;;;2.53;1.75;;;;;;;;;;6691118;26;19996;-74
2024/04/22 07:12:10;;;;;;;1.90;1.50;;;;;;;;;;6699015;26;20422;-74
2024/04/22 07:15:12;;;;;;;1.90;1.70;;;;;;;;;;6680122;26;19996;-73
2024/04/22 07:18:13;;;;;;;2.00;1.73;;;;;;;;;;6691716;26;20014;-73
2024/04/22 07:21:13;;;;;;;3.03;1.70;;;;;;;;;;6675506;26;19999;-73
2024/04/22 07:24:13;;;;;;;2.50;1.80;;;;;;;;;;6694185;26;19996;-74
2024/04/22 07:27:13;;;;;;;2.27;1.60;;;;;;;;;;6679486;26;20007;-74
2024/04/22 07:30:14;;;;;;;2.40;1.40;;;;;;;;;;6658236;26;20015;-76
2024/04/22 07:33:15;;;;;;;1.58;1.38;;;;;;;;;;6683230;26;20005;-76
2024/04/22 07:36:41;;;;;;;2.67;1.70;;;;;;;;;;6676936;26;20006;-76
2024/04/22 07:39:42;;;;;;;2.50;1.90;;;;;;;;;;6647946;26;20000;-78
2024/04/22 07:42:43;;;;;;;4.47;2.40;;;;;;;;;;6677610;26;20393;-78
2024/04/22 07:45:43;;;;;;;3.00;2.40;;;;;;;;;;6683025;26;20342;-78
2024/04/22 07:48:43;;;;;;;2.17;1.90;;;;;;;;;;6691292;26;20004;-79
2024/04/22 07:51:44;;;;;;;3.40;2.17;;;;;;;;;;6688169;26;20469;-78
2024/04/22 07:54:44;;;;;;;2.17;1.60;;;;;;;;;;6683642;26;19992;-76
2024/04/22 07:57:48;;;;;;;2.33;1.90;;;;;;;;;;6304401;26;10000351;-76
2024/04/22 08:00:49;;;;;;;2.00;1.55;;;;;;;;;;6656007;26;19996;-76
2024/04/22 08:03:49;;;;;;;2.00;1.63;;;;;;;;;;6680981;26;20451;-76
2024/04/22 08:06:51;;;;;;;2.57;1.60;;;;;;;;;;6689198;26;20440;-77
2024/04/22 08:09:52;;;;;;;2.50;1.67;;;;;;;;;;6678715;26;20375;-76
2024/04/22 08:12:52;;;;;;;2.00;1.80;;;;;;;;;;6690950;26;19998;-76
2024/04/22 08:15:52;;;;;;;2.03;1.73;;;;;;;;;;6685875;26;20043;-77
2024/04/22 08:18:53;;;;;;;2.07;1.90;;;;;;;;;;6681223;26;20000;-76
2024/04/22 08:21:53;;;;;;;1.70;1.60;;;;;;;;;;6683230;26;20019;-76
2024/04/22 08:24:54;;;;;;;2.93;1.77;;;;;;;;;;6686870;26;20386;-77
2024/04/22 08:27:54;;;;;;;2.57;1.97;;;;;;;;;;6684482;26;20024;-77
2024/04/22 08:31:01;;;;;;;2.50;1.97;;;;;;;;;;6704942;26;20440;-76
2024/04/22 08:34:01;;;;;;;2.38;1.90;;;;;;;;;;6699318;26;20015;-77
2024/04/22 08:37:01;;;;;;;2.20;1.83;;;;;;;;;;6697442;26;20000;-76
2024/04/22 08:40:02;;;;;;;2.17;1.97;;;;;;;;;;6676540;26;20078;-75
2024/04/22 08:43:02;;;;;;;1.73;1.63;;;;;;;;;;6718658;26;20000;-74
2024/04/22 08:46:05;;;;;;;2.30;1.97;;;;;;;;;;6685507;26;20036;-74
2024/04/22 08:49:05;;;;;;;2.33;1.80;;;;;;;;;;6700393;26;19999;-74
2024/04/22 08:52:06;;;;;;;2.27;1.83;;;;;;;;;;6682232;26;20000;-76
2024/04/22 08:55:06;;;;;;;1.63;1.50;;;;;;;;;;6664835;26;20000;-75
2024/04/22 08:58:07;;;;;;;2.27;1.80;;;;;;;;;;6688699;26;20036;-75
2024/04/22 09:01:07;;;;;;;1.70;1.53;;;;;;;;;;6683783;26;19997;-74
2024/04/22 09:04:07;;;;;;;1.70;1.60;;;;;;;;;;6685793;26;20278;-74
2024/04/22 09:07:08;;;;;;;1.90;1.67;;;;;;;;;;6682139;26;20000;-74
2024/04/22 09:10:10;;;;;;;1.88;1.67;;;;;;;;;;6663295;26;20000;-74
2024/04/22 09:13:10;;;;;;;2.33;2.08;;;;;;;;;;6681132;26;20019;-74
2024/04/22 09:16:16;;;;;;;2.00;1.73;;;;;;;;;;6683803;26;20367;-74
2024/04/22 09:19:24;;;;;;;4.05;1.90;;;;;;;;;;6685325;26;20497;-74
2024/04/22 09:22:24;;;;;;;2.22;2.00;;;;;;;;;;6683426;26;20057;-74
2024/04/22 09:25:26;;;;;;;2.10;1.90;;;;;;;;;;6693877;26;19996;-74
2024/04/22 09:28:26;;;;;;;;;;;;;;;;;;6684540;26;20000;-74
2024/04/22 09:31:27;;;;;;;2.22;1.50;;;;;;;;;;6683032;26;20315;-74
2024/04/22 09:34:30;;;;;;;2.00;1.80;;;;;;;;;;6686503;26;20007;-74
2024/04/22 09:37:30;;;;;;;3.20;1.75;;;;;;;;;;6685761;26;20072;-74
2024/04/22 09:40:31;;;;;;;2.27;2.03;;;;;;;;;;6691892;26;20352;-74
2024/04/22 09:43:34;;;;;;;2.43;1.80;;;;;;;;;;6693832;26;20003;-74
2024/04/22 09:46:36;;;;;;;2.50;1.92;;;;;;;;;;6677841;26;20000;-74
2024/04/22 09:49:36;;;;;;;;;;;;;;;;;;6686239;26;20019;-74
2024/04/22 09:52:37;;;;;;;2.22;1.77;;;;;;;;;;6687208;26;19957;-76
2024/04/22 09:55:38;;;;;;;2.25;1.65;;;;;;;;;;6694269;26;20074;-76
2024/04/22 09:58:39;;;;;;;1.88;1.77;;;;;;;;;;6691771;26;19991;-75
2024/04/22 10:01:39;;;;;;;2.88;1.73;;;;;;;;;;6695296;26;20386;-76
2024/04/22 10:04:39;;;;;;;3.23;1.93;;;;;;;;;;6690271;26;20407;-75
2024/04/22 10:07:39;;;;;;;2.07;1.80;;;;;;;;;;6665335;26;20006;-76
2024/04/22 10:10:40;;;;;;;2.20;2.00;;;;;;;;;;6688842;26;20452;-75
2024/04/22 10:13:40;;;;;;;2.78;1.98;;;;;;;;;;6686101;26;20225;-77
2024/04/22 10:16:41;;;;;;;2.17;1.97;;;;;;;;;;6694476;26;20007;-77
2024/04/22 10:19:41;;;;;;;2.33;2.10;;;;;;;;;;6692180;26;19996;-78
2024/04/22 10:22:43;;;;;;;2.00;1.70;;;;;;;;;;6680254;26;20004;-77
2024/04/22 10:25:43;;;;;;;2.15;1.95;;;;;;;;;;6689956;26;20011;-77
2024/04/22 10:28:45;;;;;;;2.73;1.90;;;;;;;;;;6685856;26;20004;-76
2024/04/22 10:31:45;;;;;;;2.25;2.05;;;;;;;;;;6686866;26;20452;-78
2024/04/22 10:34:45;;;;;;;2.13;1.90;;;;;;;;;;6699260;26;20010;-76
2024/04/22 10:37:45;;;;;;;2.87;1.90;;;;;;;;;;6681881;26;20004;-76
2024/04/22 10:40:46;;;;;;;2.30;1.80;;;;;;;;;;6694015;26;20095;-76
2024/04/22 10:43:46;;;;;;;2.10;1.90;;;;;;;;;;6679727;26;20008;-76
2024/04/22 10:46:46;;;;;;;2.00;1.80;;;;;;;;;;6683051;26;20000;-75
2024/04/22 10:49:47;;;;;;;2.67;1.53;;;;;;;;;;6677621;26;20460;-76
2024/04/22 10:52:47;;;;;;;2.00;1.80;;;;;;;;;;6690769;26;19999;-76
2024/04/22 10:55:48;;;;;;;2.20;1.98;;;;;;;;;;6682584;26;20287;-82
2024/04/22 10:58:50;;;;;;;2.40;1.63;;;;;;;;;;6689354;26;20314;-81
2024/04/22 11:01:50;;;;;;;2.58;1.70;;;;;;;;;;6683915;26;20039;-82
2024/04/22 11:04:51;;;;;;;2.27;1.83;;;;;;;;;;6677943;26;19996;-83
2024/04/22 11:07:56;;;;;;;2.13;1.73;;;;;;;;;;6682412;26;20049;-83
2024/04/22 11:10:57;;;;;;;1.92;1.58;;;;;;;;;;6667026;26;20710;-83
2024/04/22 11:13:57;;;;;;;2.42;2.22;;;;;;;;;;6690112;26;20012;-83
2024/04/22 11:16:58;;;;;;;1.90;1.80;;;;;;;;;;6650677;26;20018;-83
2024/04/22 11:20:05;;;;;;;2.73;1.60;;;;;;;;;;6678310;26;20028;-83
2024/04/22 11:23:05;;;;;;;2.45;1.60;;;;;;;;;;6685474;26;20014;-83
2024/04/22 11:26:06;;;;;;;2.17;1.50;;;;;;;;;;6721322;26;20008;-83
2024/04/22 11:29:06;;;;;;;1.75;1.65;;;;;;;;;;6708298;26;20008;-83
2024/04/22 11:32:08;;;;;;;1.80;1.50;;;;;;;;;;6680302;26;20014;-84
2024/04/22 11:35:08;;;;;;;1.40;1.30;;;;;;;;;;6660816;26;20008;-83
2024/04/22 11:38:18;;;;;;;1.60;1.50;;;;;;;;;;6678142;26;20478;-84
2024/04/22 11:41:20;;;;;;;2.65;1.55;;;;;;;;;;6678022;26;20033;-84
2024/04/22 11:44:20;;;;;;;1.65;1.55;;;;;;;;;;6689473;26;20015;-84
2024/04/22 11:47:26;;;;;;;1.93;1.77;;;;;;;;;;6677912;26;20496;-83
2024/04/22 11:50:26;;;;;;;1.95;1.70;;;;;;;;;;6687682;26;19996;-83
2024/04/22 11:53:27;;;;;;;1.93;1.67;;;;;;;;;;6676336;26;20039;-83
2024/04/22 11:56:35;;;;;;;1.57;1.40;;;;;;;;;;6691791;26;20015;-84
2024/04/22 11:59:35;;;;;;;1.67;1.30;;;;;;;;;;6680320;26;20433;-83
2024/04/22 12:02:36;;;;;;;1.63;1.47;;;;;;;;;;6688789;26;20004;-84
2024/04/22 12:05:36;;;;;;;1.60;1.47;;;;;;;;;;6679270;26;20502;-83
2024/04/22 12:08:36;;;;;;;1.43;1.27;;;;;;;;;;6688013;26;20393;-83
2024/04/22 12:11:36;;;;;;;1.53;1.37;;;;;;;;;;6684688;26;20474;-84
2024/04/22 12:14:36;;;;;;;1.50;1.40;;;;;;;;;;6677555;26;20433;-84
2024/04/22 12:17:37;;;;;;;1.40;1.30;;;;;;;;;;6688749;26;20364;-83
2024/04/22 12:20:37;;;;;;;1.37;1.27;;;;;;;;;;6693313;26;20069;-84
2024/04/22 12:23:38;;;;;;;1.80;1.60;;;;;;;;;;6681366;26;20036;-84
2024/04/22 12:26:38;;;;;;;2.13;1.67;;;;;;;;;;6684753;26;20003;-83
2024/04/22 12:29:39;;;;;;;1.33;1.23;;;;;;;;;;6682336;26;19996;-83
2024/04/22 12:32:39;;;;;;;1.30;1.20;;;;;;;;;;6651580;26;20008;-83
2024/04/22 12:35:39;;;;;;;1.37;1.27;;;;;;;;;;6683928;26;19992;-83
2024/04/22 12:38:39;;;;;;;1.40;1.13;;;;;;;;;;6681229;26;20445;-84
2024/04/22 12:41:40;;;;;;;1.37;1.27;;;;;;;;;;6675627;26;20003;-84
2024/04/22 12:44:40;;;;;;;1.30;1.20;;;;;;;;;;6686969;26;19995;-83
2024/04/22 12:51:00;;;;;;;1.90;1.20;;;;;;;;;;6681391;26;20012;-83
2024/04/22 12:54:00;;;;;;;1.17;1.08;;;;;;;;;;6656017;26;20403;-83
2024/04/22 12:57:00;;;;;;;1.40;1.27;;;;;;;;;;6682362;26;20276;-84
2024/04/22 13:00:06;;;;;;;1.30;1.20;;;;;;;;;;6684159;26;20070;-83
2024/04/22 13:03:07;;;;;;;1.10;1.00;;;;;;;;;;6681480;26;20530;-84
2024/04/22 13:06:07;;;;;;;1.30;1.20;;;;;;;;;;6708209;26;20008;-83
2024/04/22 13:09:07;;;;;;;1.23;1.13;;;;;;;;;;6682497;26;19996;-83
2024/04/22 13:12:07;;;;;;;1.47;1.13;;;;;;;;;;6680405;26;20016;-83
2024/04/22 13:15:08;;;;;;;1.33;1.23;;;;;;;;;;6685318;26;20019;-84
2024/04/22 13:18:08;;;;;;;1.97;1.30;;;;;;;;;;6698463;26;20004;-84
2024/04/22 13:21:08;;;;;;;1.27;1.17;;;;;;;;;;6691527;26;20004;-84
2024/04/22 13:24:08;;;;;;;1.30;1.10;;;;;;;;;;6680093;26;20070;-84
2024/04/22 13:27:09;;;;;;;1.37;1.27;;;;;;;;;;6708088;26;19996;-83
2024/04/22 13:30:12;;;;;;;1.50;1.10;;;;;;;;;;6691571;26;20001;-84
2024/04/22 13:33:12;;;;;;;1.45;1.25;;;;;;;;;;6692222;26;20409;-84
2024/04/22 13:36:13;;;;;;;1.30;1.20;;;;;;;;;;6664881;26;20012;-84
2024/04/22 13:39:13;;;;;;;1.60;1.30;;;;;;;;;;6698459;26;20000;-84
2024/04/22 13:42:24;;;;;;;1.60;1.20;;;;;;;;;;6688102;26;20020;-84
2024/04/22 13:45:24;;;;;;;1.38;1.27;;;;;;;;;;6688963;26;20000;-83
2024/04/22 13:48:24;;;;;;;1.60;1.47;;;;;;;;;;6690917;26;20363;-83
2024/04/22 13:51:24;;;;;;;1.53;1.17;;;;;;;;;;6680992;26;20417;-84
2024/04/22 13:54:25;;;;;;;2.20;1.40;;;;;;;;;;6701976;26;20010;-84
2024/04/22 13:57:25;;;;;;;1.20;0.90;;;;;;;;;;6717026;26;20011;-83
2024/04/22 14:00:25;;;;;;;1.23;1.10;;;;;;;;;;6671585;26;19999;-84
2024/04/22 14:03:25;;;;;;;1.30;0.97;;;;;;;;;;6687474;26;20523;-84
2024/04/22 14:06:26;;;;;;;2.40;1.87;;;;;;;;;;6682062;26;20337;-84
2024/04/22 14:09:26;;;;;;;1.38;1.27;;;;;;;;;;6692516;26;20317;-83
2024/04/22 14:12:27;;;;;;;1.53;1.40;;;;;;;;;;6698757;26;20011;-83
2024/04/22 14:15:27;;;;;;;1.40;1.30;;;;;;;;;;6694692;26;20453;-84
2024/04/22 14:18:27;;;;;;;1.73;1.20;;;;;;;;;;6708769;26;20014;-84
2024/04/22 14:21:27;;;;;;;1.23;0.93;;;;;;;;;;6649372;26;20015;-84
2024/04/22 14:24:28;;;;;;;1.10;1.00;;;;;;;;;;6694913;26;20043;-84
2024/04/22 14:27:28;;;;;;;1.00;0.90;;;;;;;;;;6680751;26;20004;-83
2024/04/22 14:30:28;;;;;;;0.87;0.87;;;;;;;;;;6681561;26;19996;-84
2024/04/22 14:33:28;;;;;;;2.07;1.10;;;;;;;;;;6682680;26;20476;-84
2024/04/22 14:36:29;;;;;;;1.67;1.13;;;;;;;;;;6656366;26;20467;-84
2024/04/22 14:39:29;;;;;;;1.40;1.07;;;;;;;;;;6680818;26;20449;-84
2024/04/22 14:42:29;;;;;;;1.20;1.07;;;;;;;;;;6684912;26;19992;-84
2024/04/22 14:45:30;;;;;;;0.93;0.83;;;;;;;;;;6710470;26;20514;-84
2024/04/22 14:48:30;;;;;;;1.10;1.00;;;;;;;;;;6679508;26;20000;-84
2024/04/22 14:51:31;;;;;;;1.17;1.07;;;;;;;;;;6688359;26;20073;-83
2024/04/22 14:54:31;;;;;;;1.30;1.20;;;;;;;;;;6678286;26;20514;-83
2024/04/22 14:57:31;;;;;;;1.87;1.10;;;;;;;;;;6692762;26;20457;-84
2024/04/22 15:00:32;;;;;;;1.13;1.03;;;;;;;;;;6689385;26;20461;-84
2024/04/22 15:03:34;;;;;;;1.30;1.20;;;;;;;;;;6678558;26;20455;-84
2024/04/22 15:06:34;;;;;;;1.67;1.20;;;;;;;;;;6672852;26;20428;-84
2024/04/22 15:09:40;;;;;;;1.27;1.17;;;;;;;;;;6682779;26;20073;-84
2024/04/22 15:12:41;;;;;;;2.67;1.40;;;;;;;;;;6680642;26;20538;-83
2024/04/22 15:15:41;;;;;;;1.13;1.03;;;;;;;;;;6690665;26;20014;-83
2024/04/22 15:18:41;;;;;;;1.30;1.20;;;;;;;;;;6678183;26;20012;-84
2024/04/22 15:21:41;;;;;;;1.30;1.20;;;;;;;;;;6686287;26;20016;-84
2024/04/22 15:24:42;;;;;;;1.47;1.17;;;;;;;;;;6678079;26;20032;-83
2024/04/22 15:27:42;;;;;;;2.33;1.33;;;;;;;;;;6689370;26;20016;-83
2024/04/22 15:30:42;;;;;;;1.43;1.20;;;;;;;;;;6688749;26;20042;-84
2024/04/22 15:33:42;;;;;;;1.27;1.17;;;;;;;;;;6680028;26;20007;-84
2024/04/22 15:36:43;;;;;;;1.27;1.17;;;;;;;;;;6684648;26;20045;-83
2024/04/22 15:39:43;;;;;;;1.13;1.00;;;;;;;;;;6691779;26;20037;-84
2024/04/22 15:42:43;;;;;;;1.53;1.20;;;;;;;;;;6708186;26;20222;-84
2024/04/22 15:45:43;;;;;;;1.47;1.30;;;;;;;;;;6705209;26;20082;-84
2024/04/22 15:48:44;;;;;;;1.13;1.03;;;;;;;;;;6687072;26;19999;-84
2024/04/22 15:51:45;;;;;;;1.95;1.13;;;;;;;;;;6678662;26;20625;-84
2024/04/22 15:54:46;;;;;;;1.57;1.30;;;;;;;;;;6681633;26;20039;-84
2024/04/22 15:57:46;;;;;;;1.77;1.42;;;;;;;;;;6683373;26;20012;-84
2024/04/22 16:00:47;;;;;;;1.30;1.17;;;;;;;;;;6692921;26;20441;-83
2024/04/22 16:03:47;;;;;;;1.48;1.23;;;;;;;;;;6692554;26;20448;-83
2024/04/22 16:06:47;;;;;;;1.60;1.20;;;;;;;;;;6691280;26;20482;-84
2024/04/22 16:09:48;;;;;;;2.50;1.00;;;;;;;;;;6704106;26;20440;-83
2024/04/22 16:12:49;;;;;;;1.05;0.95;;;;;;;;;;6686209;26;20001;-83
2024/04/22 16:15:49;;;;;;;1.17;0.93;;;;;;;;;;6687720;26;20469;-83
2024/04/22 16:18:49;;;;;;;0.87;0.87;;;;;;;;;;6655565;26;20337;-83
2024/04/22 16:21:49;;;;;;;1.27;1.13;;;;;;;;;;6680340;26;19992;-84
2024/04/22 16:24:50;;;;;;;1.43;1.20;;;;;;;;;;6666383;26;19996;-84
2024/04/22 16:27:53;;;;;;;1.07;0.90;;;;;;;;;;6657584;26;20003;-83
2024/04/22 16:30:53;;;;;;;0.95;0.95;;;;;;;;;;6692706;26;20452;-84
2024/04/22 16:33:53;;;;;;;2.07;1.20;;;;;;;;;;6686781;26;20095;-83
2024/04/22 16:36:54;;;;;;;1.40;1.10;;;;;;;;;;6687476;26;20003;-84
2024/04/22 16:39:54;;;;;;;1.20;1.10;;;;;;;;;;6681758;26;20097;-75
2024/04/22 16:42:55;;;;;;;2.67;1.30;;;;;;;;;;6690197;26;19993;-72
2024/04/22 16:45:55;;;;;;;1.50;1.30;;;;;;;;;;6701928;26;20081;-75
2024/04/22 16:48:55;;;;;;;1.20;1.10;;;;;;;;;;6703052;26;20455;-75
2024/04/22 16:51:55;;;;;;;1.60;1.30;;;;;;;;;;6682906;26;20004;-75
2024/04/22 16:54:56;;;;;;;1.50;1.40;;;;;;;;;;6700973;26;20015;-75
2024/04/22 16:57:57;;;;;;;1.75;1.40;;;;;;;;;;6704143;26;20011;-76
2024/04/22 17:00:57;;;;;;;2.73;1.53;;;;;;;;;;6721512;26;20085;-75
2024/04/22 17:03:58;;;;;;;1.30;1.17;;;;;;;;;;6704692;26;20356;-75
2024/04/22 17:06:58;;;;;;;1.33;1.23;;;;;;;;;;6681477;26;20080;-75
2024/04/22 17:09:58;;;;;;;1.13;1.03;;;;;;;;;;6653862;26;20102;-75
2024/04/22 17:12:58;;;;;;;1.50;1.30;;;;;;;;;;6682580;26;20020;-75
2024/04/22 17:15:58;;;;;;;1.37;1.27;;;;;;;;;;6686354;26;20583;-75
2024/04/22 17:18:59;;;;;;;1.10;1.00;;;;;;;;;;6675701;26;20011;-75
2024/04/22 17:21:59;;;;;;;1.63;1.20;;;;;;;;;;6687157;26;20647;-75
2024/04/22 17:24:59;;;;;;;1.07;0.97;;;;;;;;;;6701269;26;20027;-76
2024/04/22 17:27:59;;;;;;;1.37;1.13;;;;;;;;;;6688546;26;19996;-75
2024/04/22 17:31:00;;;;;;;2.37;1.17;;;;;;;;;;6689800;26;20023;-75
2024/04/22 17:34:01;;;;;;;1.20;1.10;;;;;;;;;;6687693;26;20015;-82
2024/04/22 17:37:01;;;;;;;2.03;1.67;;;;;;;;;;6653055;26;20046;-76
2024/04/22 17:40:01;;;;;;;1.83;1.60;;;;;;;;;;6689971;26;20349;-76
2024/04/22 17:43:01;;;;;;;1.87;1.30;;;;;;;;;;6687912;26;20339;-77
2024/04/22 17:46:03;;;;;;;1.77;1.40;;;;;;;;;;6640727;26;1079927;-76
2024/04/22 17:49:03;;;;;;;2.58;1.27;;;;;;;;;;6696588;26;20007;-75
2024/04/22 17:52:03;;;;;;;1.50;1.40;;;;;;;;;;6692146;26;20073;-76
2024/04/22 17:55:06;;;;;;;1.67;1.20;;;;;;;;;;6691700;26;19999;-76
2024/04/22 17:58:06;;;;;;;1.60;1.35;;;;;;;;;;6689984;26;20004;-77
2024/04/22 18:01:06;;;;;;;1.40;1.30;;;;;;;;;;6722866;26;20488;-75
2024/04/22 18:04:06;;;;;;;2.17;1.33;;;;;;;;;;6725356;26;20517;-75
2024/04/22 18:07:07;;;;;;;1.90;1.47;;;;;;;;;;6682291;26;20004;-74
2024/04/22 18:10:07;;;;;;;1.47;1.30;;;;;;;;;;6681614;26;20348;-74
2024/04/22 18:13:07;;;;;;;1.60;1.40;;;;;;;;;;6681117;26;20329;-74